LEHU
43.22.63N 005.49.57W
IN73CJ aprs.fi
zuletzt gehoert:
2021-11-30T19:00:04Z
zuerst gehoert:
2020-05-10T21:53:41Z

APRS Oviedo [IN73CI], 0 Stunde(n), LEHU [20:07:27, 0s].
LEHU 43.22.63N 005.49.57WIN73CJ 0.566km 326°NW19:00:04ZHelipuerto del HUCA: LEAS 301800Z 25004KT 9999 FEW042 SCT060 10/07 Q1025 NOSIG=
EC1AE 43.22.66N 005.47.75WIN73CJ 2.207km 76°ENE18:18:48Z`EC1AE - FM & Digital C4FM._%(3EC1AE-9)
33D00 43.21.63N 005.51.13WIN73BI 2.779km 240°WSW19:02:05Z33-D-00 Protección Civil REMER / Delegación del Gobierno en Asturias
EA1YR 43.22.09N 005.51.86WIN73BI 3.444km 261°W19:02:49ZMMDVM DVS 434.3500/434.3500 CC1
EA1L 43.20.37N 005.51.13WIN73BI 4.417km 213°SSW19:00:23Zea1l@ure.es V=13.6V,T=??.?C
Wind 038°/000kn, Böen bis 001kn, Temp 11.67c, Regen 0.0mm, letzte 24h 0.5mm, seit 0h 0.5mm, Baro 1023.8h, Hum: 86%(2EA1L-13)
ED1ZAU 43.23.04N 005.52.75WIN73BJ 4.764km 285°WNW19:03:01ZRD625 438.5000/430.9000 CC1
EA1ABW 43.24.77N 005.47.77WIN73CJ 4.923km 25°NNE19:00:26ZMMDVM MMDVM HS Hat 439.8250/439.8250 CC1
EA1HWX 43.19.29N 005.50.96WIN73BH 6.128km 201°SSW19:01:25ZDMO - UHF 439.7250/431.0000 CC11
LEMR 43.25.83N 005.49.60WIN73CK 6.407km 357°N19:00:08ZAerodromo de la Morgal: LEAS 301800Z 25004KT 9999 FEW042 SCT060 10/07 Q1025 NOSIG=
LEGM 43.26.15N 005.49.84WIN73CK 7.040km 355°N19:00:05ZHelipuerto de La Morgal: LEAS 301800Z 25004KT 9999 FEW042 SCT060 10/07 Q1025 NOSIG=
EA1GCM 43.17.02N 005.48.47WIN73CG 9.996km 173°S18:42:05ZIN73cg/-(3EA1GCM-8)
EA1IMW 43.14.36N 005.46.93WIN73CF 15.209km 168°SSE19:01:36ZGRUPO RADIO GALENA (GRG) 433.4500/433.4500 CC1
ED1ZAS 43.27.52N 005.40.17WIN73DL 15.595km 52°NE19:03:02ZRD985 438.2250/430.6250 CC1
ED1ZAE 43.27.99N 005.40.54WIN73DL 15.753km 49°NE19:01:38Z2m Voice 145.5875 -0.600 Mhz(3ED1ZAE-C)
WIDE3-3 ESAS3-3 IN73DL WWW.EA1URG.ORG(2ED1ZAE-3)
ED1ZAY 43.29.47N 005.56.54WIN73AL 16.348km 324°NW19:03:02ZRD625 438.3000/430.7000 CC1
EB1DGC 43.12.60N 005.45.59WIN73CF 18.808km 164°SSE19:01:20ZMMDVM MMDVM HS Hat 433.4500/433.4500 CC1
EA1JBL 43.12.28N 005.47.42WIN73CE 18.870km 172°S19:02:30ZMMDVM DVMega 435.3000/435.3000 CC1
EA1HWA 43.12.00N 005.47.40WIN73CE 19.408km 172°S19:02:14ZMMDVM MMDVM HS Hat 433.4500/433.4500 CC1
EA1AHA 43.32.72N 005.54.38WIN73BN 20.343km 341°NNW19:02:07ZWind 000°/000kn, Böen bis 000kn, Temp 12.78c, Regen 0.0mm, letzte 24h 0.0mm, seit 0h 0.0mm, Baro 1026.8h, Hum: 69%(3EA1AHA-13)
EA1FFA 43.31.53N 005.40.64WIN73DM 20.621km 35°NE19:02:20ZMMDVM MMDVM HS Hat 438.8000/438.8000 CC1
EB1TK 43.30.99N 005.39.36WIN73EM 20.862km 40°NE18:22:19ZWind 251°/006kn, Böen bis 009kn, Temp 12.22c, Regen 0.0mm, letzte 24h 0.5mm, seit 0h 0.5mm, Baro 1027.9h, Hum: 78%(3EB1TK-13)
Beni, Gijón. HamTETRA APRS(2EB1TK-12)
EA1AQK 43.16.49N 005.35.99WIN73EG 21.026km 121°ESE19:01:00ZMMDVM MMDVM HS Hat 439.8500/439.8500 CC1
EA1DZR 43.31.48N 005.40.00WIN73EM 21.033km 37°NE19:01:35ZMMDVM DVS 434.3500/434.3500 CC1
LEEL 43.32.98N 005.41.71WIN73DN 22.159km 28°NNE19:00:06ZHelipuerto de El Musel: LEAS 301800Z 25004KT 9999 FEW042 SCT060 10/07 Q1025 NOSIG=
EB1GEM 43.30.00N 005.36.07WIN73EM 22.779km 52°NE18:58:26ZWX3in1Plus2.0 U=13.3V,T=??.?C/??.?F(3EB1GEM-3)
EA1RCG 43.09.45N 005.49.78WIN73CD 23.944km 181°S19:01:28ZGRUPO RADIO GALENA (GRG) 433.4500/433.4500 CC1
EA1HJA 43.28.10N 005.30.45WIN73FL 27.548km 67°ENE19:07:03Z IN73FL WX3IN1+ 2.0 - V=14.0V,TX TEMP=44.4C
EA1HJA@URE.ES(2EA1HJA-2)
ED1ZAD 43.07.90N 005.38.52WIN73ED 30.522km 151°SSE18:51:33ZED1ZAD-3 APRS Digi/Igate(3ED1ZAD-3)
EA1JAY 43.29.33N 005.26.78WIN73GL 32.987km 67°ENE19:00:09Z434.525MHz Nodo TETRA DMO(3EA1JAY-4)
EA1JAY(2EA1JAY-2)
EA1FHR 43.28.72N 005.26.41WIN73GL 33.010km 69°ENE19:01:42ZMMDVM MMDVM HS Hat 439.1500/439.1500 CC1
EA1HWD 43.28.96N 005.26.30WIN73GL 33.320km 68°ENE19:01:50Z144.575FM Local frecuency VHF. 434.2500/434.2500 CC1
EC1KV 43.34.01N 006.16.01WIN63UN 41.841km 301°WNW18:57:35ZALBUERNE(3EC1KV-1)
LETN 43.20.05N 006.22.69WIN63TI 45.151km 265°W19:00:07ZAerodromo de La Curiscada (Tineo): LEAS 301800Z 25004KT 9999 FEW042 SCT060 10/07 Q1025 NOSIG=
EA1JBU 43.30.80N 005.16.20WIN73IM 47.227km 71°ENE18:30:21ZEA1JBU(3EA1JBU-2)
EA1JBE 43.30.90N 005.16.15WIN73IM 47.364km 70°ENE19:00:08ZEA1JBU(3EA1JBE-13)
MAIN QTH http://qrz.com/db/ea1jbe(2EA1JBE-1)

aprs.pl 5.0.011w DL3EL © 2006-2021 [1164131]